createdAt,value
2023-03-14T00:47:27.181Z,0.80
2023-03-14T00:50:13.138Z,0.90
2023-03-14T00:52:59.716Z,0.90
2023-03-14T00:55:45.622Z,0.77
2023-03-14T00:58:31.106Z,0.65
2023-03-14T01:49:13.331Z,0.73
2023-03-14T01:52:04.873Z,0.70
2023-03-14T01:54:55.503Z,0.65
2023-03-14T01:57:46.123Z,0.82
2023-03-14T02:46:23.180Z,1.25
2023-03-14T02:49:15.237Z,1.00
2023-03-14T02:52:00.570Z,0.90
2023-03-14T02:54:46.283Z,0.80
2023-03-14T02:57:31.698Z,0.73
2023-03-14T03:46:09.063Z,0.75
2023-03-14T03:48:56.276Z,1.00
2023-03-14T03:51:41.822Z,0.60
2023-03-14T03:54:27.965Z,0.90
2023-03-14T03:57:13.160Z,0.88
2023-03-14T03:59:59.006Z,0.77
2023-03-14T04:48:14.099Z,0.88
2023-03-14T04:50:59.896Z,0.70
2023-03-14T04:53:49.253Z,0.80
2023-03-14T04:56:35.113Z,0.60
2023-03-14T04:59:21.939Z,0.95
2023-03-14T05:47:47.014Z,1.20
2023-03-14T05:50:49.628Z,0.73
2023-03-14T05:53:47.601Z,0.90
2023-03-14T05:56:51.880Z,0.70
2023-03-14T06:00:00.035Z,1.35
2023-03-14T06:03:17.014Z,1.10
2023-03-14T06:06:04.748Z,0.80
2023-03-14T06:08:50.921Z,1.10
2023-03-14T06:11:36.258Z,0.90
2023-03-14T06:14:23.552Z,0.80
2023-03-14T06:17:09.404Z,1.05
2023-03-14T06:20:02.243Z,1.35
2023-03-14T06:22:49.710Z,0.98
2023-03-14T06:25:36.504Z,0.80
2023-03-14T06:28:22.308Z,0.85
2023-03-14T06:31:08.342Z,1.00
2023-03-14T06:34:02.157Z,0.90
2023-03-14T06:36:49.882Z,1.00
2023-03-14T06:39:35.351Z,0.70
2023-03-14T06:42:28.789Z,0.90
2023-03-14T06:45:15.177Z,0.90
2023-03-14T06:48:00.867Z,0.85
2023-03-14T06:50:55.637Z,1.00
2023-03-14T06:53:42.117Z,0.70
2023-03-14T06:56:27.728Z,0.82
2023-03-14T06:59:15.125Z,0.80
2023-03-14T07:02:02.417Z,0.90
2023-03-14T07:04:47.814Z,0.90
2023-03-14T07:07:33.531Z,0.90
2023-03-14T07:10:18.958Z,0.80
2023-03-14T07:13:04.388Z,0.85
2023-03-14T07:15:54.031Z,1.08
2023-03-14T07:18:39.550Z,1.13
2023-03-14T07:21:26.134Z,0.70
2023-03-14T07:24:11.608Z,0.60
2023-03-14T07:26:57.317Z,0.50
2023-03-14T07:29:42.470Z,0.70
2023-03-14T07:32:28.682Z,0.70
2023-03-14T07:35:13.977Z,0.60
2023-03-14T07:38:00.643Z,0.80
2023-03-14T07:41:05.825Z,0.68
2023-03-14T07:43:54.056Z,0.70
2023-03-14T07:46:40.954Z,0.68
2023-03-14T07:49:26.029Z,0.80
2023-03-14T07:52:11.482Z,0.80
2023-03-14T07:54:56.697Z,0.95
2023-03-14T07:57:41.924Z,0.50
2023-03-14T08:00:27.315Z,0.73
2023-03-14T08:03:12.650Z,0.90
2023-03-14T08:05:57.863Z,0.68
2023-03-14T08:08:43.071Z,0.68
2023-03-14T08:11:28.405Z,0.70
2023-03-14T08:14:13.754Z,0.65
2023-03-14T08:16:58.908Z,0.60
2023-03-14T08:19:44.225Z,0.60
2023-03-14T08:22:29.528Z,0.68
2023-03-14T08:25:15.591Z,0.47
2023-03-14T08:28:00.731Z,0.50
2023-03-14T08:30:47.862Z,0.70
2023-03-14T08:33:33.307Z,0.75
2023-03-14T08:36:22.435Z,0.70
2023-03-14T08:39:09.587Z,0.50
2023-03-14T08:41:54.929Z,0.50
2023-03-14T08:44:40.395Z,0.50
2023-03-14T08:47:26.549Z,0.52
2023-03-14T08:50:16.198Z,0.45
2023-03-14T08:53:03.738Z,0.60
2023-03-14T08:55:54.952Z,0.70
2023-03-14T08:58:40.522Z,0.60
2023-03-14T09:01:27.248Z,0.60
2023-03-14T09:04:12.806Z,0.50
2023-03-14T09:06:59.100Z,0.50
2023-03-14T09:09:45.177Z,0.60
2023-03-14T09:12:30.662Z,0.60
2023-03-14T09:15:16.024Z,0.50
2023-03-14T09:18:01.563Z,0.55
2023-03-14T09:20:47.246Z,0.52
2023-03-14T09:23:32.718Z,0.63
2023-03-14T09:26:17.972Z,0.50
2023-03-14T09:29:03.340Z,0.70
2023-03-14T09:31:48.546Z,0.60
2023-03-14T09:34:36.364Z,0.55
2023-03-14T09:37:22.306Z,0.57
2023-03-14T09:40:13.097Z,0.60
2023-03-14T09:42:59.834Z,0.70
2023-03-14T09:45:49.043Z,0.55
2023-03-14T09:48:35.855Z,0.50
2023-03-14T09:51:25.143Z,0.60
2023-03-14T09:54:28.014Z,0.43
2023-03-14T09:57:19.272Z,0.50
2023-03-14T10:00:15.165Z,0.60
2023-03-14T10:03:12.600Z,0.55
2023-03-14T10:05:58.193Z,0.50
2023-03-14T10:08:45.743Z,0.70
2023-03-14T10:11:31.165Z,0.60
2023-03-14T10:14:36.758Z,0.50
2023-03-14T10:17:21.987Z,0.60
2023-03-14T10:20:11.782Z,0.60
2023-03-14T10:22:56.949Z,0.60
2023-03-14T10:25:47.525Z,0.50
2023-03-14T10:28:38.618Z,0.60
2023-03-14T10:31:26.924Z,0.60
2023-03-14T10:34:17.544Z,0.60
2023-03-14T10:37:35.488Z,0.50
2023-03-14T10:40:25.545Z,0.50
2023-03-14T10:43:18.036Z,0.77
2023-03-14T10:46:13.458Z,0.50
2023-03-14T10:49:30.337Z,0.60
2023-03-14T10:52:31.545Z,0.40
2023-03-14T10:55:42.117Z,0.55
2023-03-14T10:58:32.603Z,0.50
2023-03-14T11:01:32.215Z,0.50
2023-03-14T11:04:36.974Z,0.60
2023-03-14T11:07:30.498Z,0.40
2023-03-14T11:10:34.103Z,0.50
2023-03-14T11:13:29.976Z,0.60
2023-03-14T11:16:21.621Z,0.50
2023-03-14T11:19:25.373Z,0.50
2023-03-14T11:22:43.464Z,0.50
2023-03-14T11:25:45.278Z,0.50
2023-03-14T11:28:48.539Z,0.52
2023-03-14T11:31:39.935Z,0.50
2023-03-14T11:34:28.256Z,0.70
2023-03-14T11:37:22.987Z,0.50
2023-03-14T11:40:19.097Z,0.50
2023-03-14T11:43:16.291Z,0.40
2023-03-14T11:46:31.941Z,0.60
2023-03-14T11:49:26.614Z,0.60
2023-03-14T11:52:21.111Z,0.50
2023-03-14T11:55:14.214Z,0.50
2023-03-14T11:58:04.687Z,0.40
2023-03-14T12:00:51.981Z,0.50
2023-03-14T12:03:57.755Z,0.50
2023-03-14T12:06:51.224Z,0.57
2023-03-14T12:09:37.050Z,0.55
2023-03-14T12:12:25.364Z,0.50
2023-03-14T12:15:21.505Z,0.50
2023-03-14T12:18:20.019Z,0.60
2023-03-14T12:21:08.646Z,0.60
2023-03-14T12:23:56.581Z,0.40
2023-03-14T12:26:52.761Z,0.60
2023-03-14T12:30:01.696Z,0.40
2023-03-14T12:33:17.739Z,0.55
2023-03-14T12:36:05.712Z,0.50
2023-03-14T12:39:02.023Z,0.50
2023-03-14T12:41:52.888Z,0.40
2023-03-14T12:44:44.595Z,0.50
2023-03-14T12:47:32.635Z,0.40
2023-03-14T12:50:26.576Z,0.53
2023-03-14T12:53:37.132Z,0.40
2023-03-14T12:56:33.335Z,0.40
2023-03-14T12:59:29.340Z,0.43
2023-03-14T13:02:37.648Z,0.45
2023-03-14T13:05:26.368Z,0.40
2023-03-14T13:08:11.772Z,0.55
2023-03-14T13:10:57.677Z,0.40
2023-03-14T13:13:48.107Z,0.47
2023-03-14T13:16:37.432Z,0.40
2023-03-14T13:19:30.334Z,0.43
2023-03-14T13:22:24.808Z,0.50
2023-03-14T13:25:12.056Z,0.50
2023-03-14T13:27:57.690Z,0.40
2023-03-14T13:30:45.829Z,0.40
2023-03-14T13:33:31.114Z,0.50
2023-03-14T13:36:22.930Z,0.50
2023-03-14T13:39:14.564Z,0.40
2023-03-14T13:42:02.385Z,0.40
2023-03-14T13:44:47.928Z,0.30
2023-03-14T13:47:32.917Z,0.40
2023-03-14T13:50:19.685Z,0.40
2023-03-14T13:53:05.275Z,0.40
2023-03-14T13:55:51.839Z,0.57
2023-03-14T13:58:39.671Z,0.47
2023-03-14T14:01:27.430Z,0.40
2023-03-14T14:04:20.106Z,0.50
2023-03-14T14:07:12.853Z,0.40
2023-03-14T14:10:01.420Z,0.50
2023-03-14T14:12:53.820Z,0.50
2023-03-14T14:15:44.366Z,0.40
2023-03-14T14:18:30.800Z,0.50
2023-03-14T14:21:16.340Z,0.50
2023-03-14T14:24:01.818Z,0.40
2023-03-14T14:26:55.392Z,0.40
2023-03-14T14:29:40.693Z,0.40
2023-03-14T14:32:26.276Z,0.40
2023-03-14T14:35:22.498Z,0.50
2023-03-14T14:38:17.018Z,0.30
2023-03-14T14:41:03.819Z,0.40
2023-03-14T14:43:49.742Z,0.40
2023-03-14T14:46:38.472Z,0.40
2023-03-14T14:49:30.403Z,0.40
2023-03-14T14:52:21.445Z,0.30
2023-03-14T14:55:18.437Z,0.43
2023-03-14T14:58:40.037Z,0.43
2023-03-14T15:01:27.749Z,0.50
2023-03-14T15:04:15.850Z,0.40
2023-03-14T15:07:01.518Z,0.40
2023-03-14T15:09:46.705Z,0.40
2023-03-14T15:12:32.015Z,0.40
2023-03-14T15:15:18.700Z,0.40
2023-03-14T15:18:09.505Z,0.50
2023-03-14T15:20:54.859Z,0.50
2023-03-14T15:23:40.050Z,0.70
2023-03-14T15:26:27.998Z,0.50
2023-03-14T15:29:13.711Z,0.32
2023-03-14T15:31:59.267Z,0.50
2023-03-14T15:34:44.643Z,0.50
2023-03-14T15:37:29.723Z,0.63
2023-03-14T15:40:16.298Z,0.50
2023-03-14T15:43:02.107Z,0.40
2023-03-14T15:45:47.478Z,0.43
2023-03-14T15:48:32.862Z,0.38
2023-03-14T15:51:19.224Z,0.50
2023-03-14T15:54:04.469Z,0.60
2023-03-14T15:56:49.756Z,0.50
2023-03-14T15:59:35.182Z,0.43
2023-03-14T16:02:20.673Z,0.60
2023-03-14T16:05:06.603Z,0.60
2023-03-14T16:07:52.132Z,0.50
2023-03-14T16:10:39.580Z,0.40
2023-03-14T16:13:24.884Z,0.43
2023-03-14T16:16:13.138Z,0.55
2023-03-14T16:18:58.600Z,0.40
2023-03-14T16:21:43.838Z,0.50
2023-03-14T16:24:29.188Z,0.60
2023-03-14T16:27:14.166Z,0.47
2023-03-14T16:30:00.565Z,0.57
2023-03-14T16:32:48.099Z,0.50
2023-03-14T16:35:33.574Z,0.80
2023-03-14T16:38:18.835Z,0.80
2023-03-14T16:41:13.390Z,0.80
2023-03-14T16:43:59.376Z,0.90
2023-03-14T16:46:44.675Z,1.17
2023-03-14T16:49:30.264Z,0.90
2023-03-14T16:52:16.051Z,0.98
2023-03-14T16:55:02.808Z,0.82
2023-03-14T16:57:48.176Z,1.00
2023-03-14T17:00:33.523Z,1.10
2023-03-14T17:03:19.734Z,1.73
2023-03-14T17:06:04.900Z,1.33
2023-03-14T17:08:50.778Z,1.30
2023-03-14T17:11:36.869Z,1.25
2023-03-14T17:14:22.138Z,1.23
2023-03-14T17:17:07.459Z,1.43
2023-03-14T17:19:52.877Z,1.30
2023-03-14T17:22:38.229Z,1.10
2023-03-14T17:25:23.855Z,1.20
2023-03-14T17:28:09.923Z,1.30
2023-03-14T17:31:07.967Z,1.30
2023-03-14T17:33:55.075Z,1.33
2023-03-14T17:36:40.158Z,1.13
2023-03-14T17:39:25.339Z,1.08
2023-03-14T17:42:10.712Z,1.60
2023-03-14T17:44:58.330Z,1.80
2023-03-14T17:47:44.374Z,1.60
2023-03-14T17:50:29.902Z,1.25
2023-03-14T17:53:15.545Z,1.80
2023-03-14T17:56:00.880Z,1.80
2023-03-14T17:58:46.149Z,1.50
2023-03-14T18:01:31.683Z,1.83
2023-03-14T18:04:17.248Z,1.50
2023-03-14T18:07:02.679Z,1.48
2023-03-14T18:09:47.982Z,1.63
2023-03-14T18:12:33.276Z,1.37
2023-03-14T18:15:18.603Z,1.60
2023-03-14T18:18:04.016Z,1.52
2023-03-14T18:20:51.730Z,1.92
2023-03-14T18:23:37.340Z,1.50
2023-03-14T18:26:25.191Z,1.20
2023-03-14T18:29:14.416Z,1.25
2023-03-14T18:31:59.616Z,1.30
2023-03-14T18:34:44.750Z,1.60
2023-03-14T18:37:30.168Z,1.40
2023-03-14T18:40:17.431Z,1.20
2023-03-14T18:43:02.582Z,1.45
2023-03-14T18:45:47.998Z,1.60
2023-03-14T18:48:33.283Z,2.97
2023-03-14T18:51:18.770Z,5.30
2023-03-14T18:54:09.952Z,4.37
2023-03-14T18:56:55.977Z,4.40
2023-03-14T18:59:41.385Z,4.50
2023-03-14T19:02:26.788Z,4.80
2023-03-14T19:05:13.350Z,5.20
2023-03-14T19:07:58.832Z,5.67
2023-03-14T19:10:43.986Z,4.80
2023-03-14T19:13:30.465Z,5.13
2023-03-14T19:16:16.488Z,5.05
2023-03-14T19:19:02.212Z,4.93
2023-03-14T19:21:47.817Z,4.57
2023-03-14T19:24:34.876Z,4.80
2023-03-14T19:27:21.293Z,4.95
2023-03-14T19:30:08.176Z,4.90
2023-03-14T19:32:53.506Z,4.70
2023-03-14T19:35:38.962Z,4.00
2023-03-14T19:38:24.435Z,4.43
2023-03-14T19:41:09.693Z,4.40
2023-03-14T19:43:55.019Z,4.70
2023-03-14T19:46:41.362Z,5.63
2023-03-14T19:49:27.877Z,7.13
2023-03-14T19:52:13.003Z,6.55
2023-03-14T19:54:58.229Z,7.07
2023-03-14T19:57:44.412Z,7.38
2023-03-14T20:00:29.829Z,6.68
2023-03-14T20:03:16.437Z,6.67
2023-03-14T20:06:05.360Z,6.75
2023-03-14T20:08:50.814Z,6.63
2023-03-14T20:11:40.794Z,6.80
2023-03-14T20:14:25.782Z,6.57
2023-03-14T20:17:11.626Z,6.47
2023-03-14T20:19:58.223Z,6.32
2023-03-14T20:22:44.021Z,6.70
2023-03-14T20:25:29.036Z,6.03
2023-03-14T20:28:14.332Z,6.35
2023-03-14T20:30:59.885Z,6.00
2023-03-14T20:33:45.194Z,5.80
2023-03-14T20:36:31.337Z,5.75
2023-03-14T20:39:16.805Z,5.68
2023-03-14T20:42:01.983Z,5.40
2023-03-14T20:44:47.775Z,5.37
2023-03-14T20:47:34.990Z,5.18
2023-03-14T20:50:20.567Z,5.15
2023-03-14T20:53:05.863Z,5.80
2023-03-14T20:55:54.435Z,4.80
2023-03-14T20:58:40.107Z,4.77
2023-03-14T21:01:25.485Z,4.53
2023-03-14T21:04:10.702Z,4.90
2023-03-14T21:06:56.159Z,4.95
2023-03-14T21:09:41.277Z,4.72
2023-03-14T21:12:26.555Z,4.77
2023-03-14T21:15:14.344Z,5.20
2023-03-14T21:18:05.367Z,4.55
2023-03-14T21:20:54.534Z,4.72
2023-03-14T21:23:41.112Z,4.90
2023-03-14T21:26:26.539Z,4.50
2023-03-14T21:29:11.726Z,3.97
2023-03-14T21:31:56.842Z,4.20
2023-03-14T21:34:41.955Z,3.95
2023-03-14T21:37:27.964Z,3.90
2023-03-14T21:40:13.842Z,4.17
2023-03-14T21:42:59.572Z,4.00
2023-03-14T21:45:44.950Z,3.60
2023-03-14T21:48:30.170Z,3.70
2023-03-14T21:51:15.457Z,3.72
2023-03-14T21:54:00.672Z,4.23
2023-03-14T21:56:45.906Z,3.90
2023-03-14T21:59:33.906Z,3.60
2023-03-14T22:02:19.355Z,3.70
2023-03-14T22:05:05.373Z,4.10
2023-03-14T22:07:50.412Z,3.90
2023-03-14T22:10:35.678Z,4.15
2023-03-14T22:13:23.493Z,3.25
2023-03-14T22:16:08.764Z,3.88
2023-03-14T22:18:54.014Z,3.80
2023-03-14T22:21:39.506Z,3.60
2023-03-14T22:24:24.767Z,3.70
2023-03-14T22:27:13.054Z,3.55
2023-03-14T22:29:58.732Z,3.55
2023-03-14T22:32:44.244Z,3.28
2023-03-14T22:35:29.745Z,3.30
2023-03-14T22:38:15.042Z,3.20
2023-03-14T22:41:04.949Z,3.80
2023-03-14T22:43:50.386Z,3.47
2023-03-14T22:46:35.292Z,3.50
2023-03-14T22:49:20.906Z,3.20
2023-03-14T22:52:06.372Z,3.25
2023-03-14T22:54:55.495Z,3.65
2023-03-14T22:57:41.181Z,3.45
2023-03-14T23:00:26.983Z,3.30
2023-03-14T23:03:14.262Z,3.30
2023-03-14T23:05:59.893Z,3.15
2023-03-14T23:08:45.298Z,3.50
2023-03-14T23:11:30.507Z,3.08
2023-03-14T23:14:15.774Z,3.30
2023-03-14T23:17:00.784Z,3.00
2023-03-14T23:19:45.991Z,2.97
2023-03-14T23:22:33.452Z,3.10
2023-03-14T23:25:19.135Z,2.83
2023-03-14T23:28:04.489Z,3.30
2023-03-14T23:30:56.732Z,3.03
2023-03-14T23:33:43.385Z,3.15
2023-03-14T23:36:29.681Z,3.17
2023-03-14T23:39:15.128Z,2.80
2023-03-14T23:42:00.445Z,2.75
2023-03-14T23:44:45.724Z,3.13
2023-03-14T23:47:31.002Z,2.83
2023-03-14T23:50:16.706Z,2.90
2023-03-14T23:53:02.192Z,3.03
2023-03-14T23:55:47.559Z,3.25
2023-03-14T23:58:35.701Z,2.90
